KORB

Orr Regional Airport

Orr, Minnesota, USA
METAR KORB 212333Z AUTO 00000KT 10SM CLR 27/14 A2989 RMK AO2
Observed Flight Rules
Jun-21 @ 23:33 UTC (20 minutes ago) Visual Flight Rules
Visibility Clouds
10 miles
  • Clear skies
Temperatures Readings
Current 27°C / 81°F
Dewpoint 14°C / 57°F
Humidity 45%
Altimeter 29.89" Hg
Pressure 1012 hPa
Elevation 397
METAR KORB 212333Z AUTO 00000KT 10SM CLR 27/14 A2989 RMK AO2
Observed Flight Rules
Jun-21 @ 23:33 UTC
(20 minutes ago)
VFR
Clouds
  • Clear skies
Temperature Dewpoint
27°C / 81°F 14°C / 57°F
Humidity Altimeter Pressure
45% 29.89" Hg 1012 hPa